Time;durP1;ratioP1;P1;durP2;ratioP2;P2;SDS_P1;SDS_P2;PMS_P1;PMS_P2;Temp;Humidity;BMP_temperature;BMP_pressure;BME280_temperature;BME280_humidity;BME280_pressure;Samples;Min_cycle;Max_cycle;Signal;HPM_P1;HPM_P2
2022/04/19 00:01:31;;;;;;;;;;;1.30;93.80;;;;;;6209108;23;19943;-81
2022/04/19 00:04:16;;;;;;;;;;;1.30;93.80;;;;;;6206648;23;19912;-80
2022/04/19 00:06:58;;;;;;;;;;;1.40;94.00;;;;;;6210952;23;19897;-83
2022/04/19 00:09:37;;;;;;;;;;;1.40;94.70;;;;;;6212900;23;19916;-81
2022/04/19 00:12:32;;;;;;;;;;;3.10;94.40;;;;;;6182510;23;19911;-81
2022/04/19 00:14:58;;;;;;;;;;;1.30;93.90;;;;;;6183297;23;19893;-81
2022/04/19 00:17:27;;;;;;;;;;;1.30;93.50;;;;;;6180009;23;19893;-82
2022/04/19 00:19:52;;;;;;;;;;;1.20;93.70;;;;;;6180939;23;19892;-82
2022/04/19 00:22:30;;;;;;;;;;;1.20;93.70;;;;;;6181154;23;19997;-82
2022/04/19 00:24:58;;;;;;;;;;;1.20;93.90;;;;;;6182801;23;19893;-80
2022/04/19 00:27:45;;;;;;;;;;;1.20;93.90;;;;;;6154662;23;19908;-81
2022/04/19 00:30:12;;;;;;;;;;;1.20;94.00;;;;;;6155667;23;19925;-80
2022/04/19 00:32:37;;;;;;;;;;;1.30;94.00;;;;;;6157981;23;19893;-82
2022/04/19 00:35:04;;;;;;;;;;;-0.60;93.90;;;;;;6173268;23;19913;-80
2022/04/19 00:37:30;;;;;;;;;;;1.20;94.00;;;;;;6178073;23;19916;-81
2022/04/19 00:40:00;;;;;;;;;;;1.20;94.20;;;;;;6180413;23;20324;-81
2022/04/19 00:42:27;;;;;;;;;;;0.10;93.80;;;;;;6184732;23;19916;-81
2022/04/19 00:44:54;;;;;;;;;;;1.20;93.90;;;;;;6162025;23;19911;-81
2022/04/19 00:47:20;;;;;;;;;;;1.30;94.00;;;;;;6160759;23;19909;-80
2022/04/19 00:49:45;;;;;;;;;;;1.30;93.90;;;;;;6189101;23;19904;-81
2022/04/19 00:52:15;;;;;;;;;;;1.30;93.90;;;;;;6207939;23;19928;-82
2022/04/19 00:54:43;;;;;;;;;;;4.10;95.00;;;;;;6209922;23;19964;-83
2022/04/19 00:57:14;;;;;;;;;;;1.40;94.30;;;;;;6209794;23;19928;-81
2022/04/19 00:59:46;;;;;;;;;;;1.30;94.10;;;;;;6210239;23;19908;-80
2022/04/19 01:02:13;;;;;;;;;;;1.30;94.00;;;;;;6210037;23;19916;-82
2022/04/19 01:10:05;;;;;;;;;;;1.30;94.00;;;;;;6240323;22;19968;-79
2022/04/19 01:15:16;;;;;;;;;;;1.30;94.00;;;;;;6241142;23;19900;-80
2022/04/19 01:17:47;;;;;;;;;;;2.50;94.50;;;;;;6240251;23;19896;-81
2022/04/19 01:20:16;;;;;;;;;;;2.70;94.30;;;;;;6241108;23;19908;-82
2022/04/19 01:22:58;;;;;;;;;;;1.90;94.20;;;;;;6210911;23;19915;-80
2022/04/19 01:25:28;;;;;;;;;;;0.80;93.90;;;;;;6237691;23;19904;-80
2022/04/19 01:27:54;;;;;;;;;;;4.10;94.90;;;;;;6211126;23;19908;-80
2022/04/19 01:30:26;;;;;;;;;;;1.10;94.80;;;;;;6235943;23;19935;-79
2022/04/19 01:32:52;;;;;;;;;;;0.90;94.00;;;;;;6211826;23;19904;-80
2022/04/19 01:35:40;;;;;;;;;;;1.00;94.30;;;;;;6233561;23;19915;-82
2022/04/19 01:38:23;;;;;;;;;;;0.90;94.30;;;;;;6231643;23;19950;-80
2022/04/19 01:40:51;;;;;;;;;;;1.10;94.10;;;;;;6151479;23;19916;-82
2022/04/19 01:43:17;;;;;;;;;;;0.90;94.20;;;;;;6228924;23;19932;-81
2022/04/19 01:45:42;;;;;;;;;;;1.00;94.00;;;;;;6227210;23;19930;-82
2022/04/19 01:48:08;;;;;;;;;;;1.50;94.30;;;;;;6222204;23;19908;-80
2022/04/19 01:50:39;;;;;;;;;;;0.90;94.20;;;;;;6215874;23;19904;-81
2022/04/19 01:53:04;;;;;;;;;;;0.90;94.10;;;;;;6213933;23;19907;-81
2022/04/19 01:55:31;;;;;;;;;;;0.80;94.00;;;;;;6186787;23;19949;-81
2022/04/19 01:57:59;;;;;;;;;;;0.80;94.20;;;;;;6222948;23;19904;-79
2022/04/19 02:00:30;;;;;;;;;;;0.70;94.30;;;;;;6224192;23;19900;-83
2022/04/19 02:03:03;;;;;;;;;;;0.50;94.70;;;;;;6210903;23;19912;-82
2022/04/19 02:08:13;;;;;;;;;;;0.90;94.90;;;;;;6160757;23;19928;-80
2022/04/19 02:10:41;;;;;;;;;;;-1.40;94.20;;;;;;6173760;23;19917;-80
2022/04/19 02:13:08;;;;;;;;;;;0.20;95.40;;;;;;6173369;23;19905;-82
2022/04/19 02:15:34;;;;;;;;;;;-2.70;94.30;;;;;;6206232;23;19892;-81
2022/04/19 02:18:19;;;;;;;;;;;0.50;95.30;;;;;;6183426;23;19912;-80
2022/04/19 02:20:50;;;;;;;;;;;2.60;95.80;;;;;;6206147;23;19912;-80
2022/04/19 02:23:18;;;;;;;;;;;0.60;95.30;;;;;;6204366;23;19905;-80
2022/04/19 02:25:55;;;;;;;;;;;0.20;95.10;;;;;;6204538;23;19908;-80
2022/04/19 02:28:23;;;;;;;;;;;0.70;95.40;;;;;;6206376;23;19931;-79
2022/04/19 02:30:49;;;;;;;;;;;0.10;95.40;;;;;;6197557;23;19916;-80
2022/04/19 02:33:15;;;;;;;;;;;0.10;95.70;;;;;;6207234;23;19916;-81
2022/04/19 02:35:43;;;;;;;;;;;2.00;96.10;;;;;;6208132;23;19927;-79
2022/04/19 02:38:11;;;;;;;;;;;0.20;95.60;;;;;;6207678;23;19912;-80
2022/04/19 02:40:37;;;;;;;;;;;0.10;95.60;;;;;;6210257;23;19915;-81
2022/04/19 02:43:03;;;;;;;;;;;-0.20;95.90;;;;;;6184762;23;19888;-78
2022/04/19 02:45:28;;;;;;;;;;;0.10;95.80;;;;;;6184212;23;19919;-80
2022/04/19 02:48:04;;;;;;;;;;;0.20;95.90;;;;;;6181268;23;19919;-79
2022/04/19 02:50:31;;;;;;;;;;;0.10;95.70;;;;;;6209619;23;20205;-81
2022/04/19 02:53:02;;;;;;;;;;;0.10;95.60;;;;;;6184213;22;19927;-80
2022/04/19 02:58:07;;;;;;;;;;;0.10;95.80;;;;;;6169821;23;19909;-80
2022/04/19 03:00:35;;;;;;;;;;;0.20;95.60;;;;;;6145486;23;19936;-79
2022/04/19 03:03:03;;;;;;;;;;;0.00;95.40;;;;;;6167089;23;19928;-80
2022/04/19 03:05:29;;;;;;;;;;;0.00;95.50;;;;;;6178187;23;19929;-79
2022/04/19 03:07:56;;;;;;;;;;;1.00;95.90;;;;;;6156947;23;19908;-80
2022/04/19 03:10:43;;;;;;;;;;;0.30;96.50;;;;;;6184479;23;19915;-80
2022/04/19 03:13:19;;;;;;;;;;;-1.10;95.40;;;;;;6157913;23;19909;-82
2022/04/19 03:16:05;;;;;;;;;;;0.30;95.80;;;;;;6159450;23;19897;-79
2022/04/19 03:21:16;;;;;;;;;;;0.30;95.70;;;;;;6157707;23;19915;-81
2022/04/19 03:29:44;;;;;;;;;;;0.30;95.90;;;;;;6152872;23;19925;-79
2022/04/19 03:32:20;;;;;;;;;;;1.20;96.60;;;;;;6153243;23;19913;-78
2022/04/19 03:35:28;;;;;;;;;;;0.40;96.40;;;;;;6066036;23;19902;-81
2022/04/19 03:38:25;;;;;;;;;;;0.90;96.30;;;;;;6007983;23;19903;-81
2022/04/19 03:40:53;;;;;;;;;;;0.10;96.20;;;;;;6009019;23;19898;-80
2022/04/19 03:44:05;;;;;;;;;;;-0.10;96.10;;;;;;5982221;24;19926;-81
2022/04/19 03:49:34;;;;;;;;;;;-1.60;95.60;;;;;;5981442;24;19926;-80
2022/04/19 03:52:19;;;;;;;;;;;-1.50;96.20;;;;;;5955434;24;19907;-81
2022/04/19 03:54:47;;;;;;;;;;;-0.50;96.10;;;;;;5973110;24;19915;-80
2022/04/19 03:57:13;;;;;;;;;;;1.50;96.70;;;;;;5969903;24;20284;-81
2022/04/19 04:00:02;;;;;;;;;;;0.10;96.30;;;;;;5904614;24;19933;-80
2022/04/19 04:02:31;;;;;;;;;;;-0.40;96.20;;;;;;5903825;24;19907;-80
2022/04/19 04:05:03;;;;;;;;;;;0.50;96.40;;;;;;5907642;24;19959;-80
2022/04/19 04:07:38;;;;;;;;;;;-0.30;96.20;;;;;;5911091;24;20286;-80
2022/04/19 04:10:18;;;;;;;;;;;-0.40;96.20;;;;;;5913024;24;19928;-80
2022/04/19 04:12:45;;;;;;;;;;;-0.10;97.00;;;;;;5906063;24;20214;-79
2022/04/19 04:15:31;;;;;;;;;;;-0.50;96.40;;;;;;5923391;24;19978;-80
2022/04/19 04:18:19;;;;;;;;;;;-0.50;97.10;;;;;;5939687;24;19907;-81
2022/04/19 04:20:45;;;;;;;;;;;0.30;97.10;;;;;;5928616;24;19914;-79
2022/04/19 04:23:10;;;;;;;;;;;0.60;97.10;;;;;;5974434;24;20434;-78
2022/04/19 04:25:39;;;;;;;;;;;-0.50;97.00;;;;;;5978725;24;19902;-81
2022/04/19 04:28:08;;;;;;;;;;;-0.60;96.60;;;;;;5978500;24;19895;-82
2022/04/19 04:30:33;;;;;;;;;;;-0.60;96.60;;;;;;5978424;23;19907;-79
2022/04/19 04:32:59;;;;;;;;;;;1.90;97.10;;;;;;6034310;23;19945;-82
2022/04/19 04:35:24;;;;;;;;;;;0.10;96.80;;;;;;6035414;23;19898;-79
2022/04/19 04:37:55;;;;;;;;;;;-1.20;96.40;;;;;;6034936;23;19910;-81
2022/04/19 04:40:21;;;;;;;;;;;-0.50;96.50;;;;;;6035406;23;19910;-82
2022/04/19 04:45:22;;;;;;;;;;;-0.40;96.50;;;;;;6162254;23;19987;-81
2022/04/19 04:50:38;;;;;;;;;;;1.90;96.90;;;;;;6150608;23;19923;-81
2022/04/19 04:53:07;;;;;;;;;;;-0.40;96.20;;;;;;6123707;23;20253;-80
2022/04/19 04:55:32;;;;;;;;;;;1.90;96.90;;;;;;6154791;23;19897;-82
2022/04/19 04:58:06;;;;;;;;;;;-0.30;96.20;;;;;;6175084;23;19928;-80
2022/04/19 05:00:32;;;;;;;;;;;-0.30;96.90;;;;;;6151129;23;20135;-81
2022/04/19 05:02:58;;;;;;;;;;;-0.10;96.30;;;;;;6149176;23;20210;-83
2022/04/19 05:05:23;;;;;;;;;;;-0.30;96.00;;;;;;6178294;23;19915;-84
2022/04/19 05:07:49;;;;;;;;;;;-0.10;95.90;;;;;;6166888;23;19889;-81
2022/04/19 05:10:14;;;;;;;;;;;0.20;95.80;;;;;;6208013;23;19909;-82
2022/04/19 05:12:40;;;;;;;;;;;0.50;95.70;;;;;;6208067;23;19915;-82
2022/04/19 05:15:06;;;;;;;;;;;0.10;95.60;;;;;;6208874;23;19904;-80
2022/04/19 05:17:31;;;;;;;;;;;0.10;95.40;;;;;;6208759;23;19904;-81
2022/04/19 05:20:09;;;;;;;;;;;0.20;95.40;;;;;;6182533;23;19904;-82
2022/04/19 05:22:38;;;;;;;;;;;0.30;95.30;;;;;;6204487;23;20093;-79
2022/04/19 05:25:04;;;;;;;;;;;0.80;95.30;;;;;;6182658;23;19952;-82
2022/04/19 05:27:29;;;;;;;;;;;1.10;95.70;;;;;;6184123;23;19892;-80
2022/04/19 05:29:58;;;;;;;;;;;0.60;94.90;;;;;;6210996;23;19899;-81
2022/04/19 05:32:27;;;;;;;;;;;0.80;94.30;;;;;;6183933;23;19916;-81
2022/04/19 05:34:53;;;;;;;;;;;0.90;94.50;;;;;;6208273;23;19915;-82
2022/04/19 05:37:18;;;;;;;;;;;1.80;94.30;;;;;;6211317;23;19936;-82
2022/04/19 05:39:44;;;;;;;;;;;0.80;94.10;;;;;;6212889;23;19913;-81
2022/04/19 05:42:10;;;;;;;;;;;2.10;94.20;;;;;;6187250;23;19909;-80
2022/04/19 05:45:04;;;;;;;;;;;1.10;94.10;;;;;;6187453;23;19974;-82
2022/04/19 05:47:39;;;;;;;;;;;1.20;93.60;;;;;;6123175;23;19913;-83
2022/04/19 05:50:05;;;;;;;;;;;1.50;93.30;;;;;;6098517;23;19893;-80
2022/04/19 05:52:30;;;;;;;;;;;1.60;92.80;;;;;;6117736;23;20183;-79
2022/04/19 05:54:56;;;;;;;;;;;1.80;92.50;;;;;;6120241;23;19890;-80
2022/04/19 05:57:21;;;;;;;;;;;1.90;92.30;;;;;;6096441;23;19901;-80
2022/04/19 06:00:22;;;;;;;;;;;1.90;92.20;;;;;;6145501;23;19957;-79
2022/04/19 06:05:32;;;;;;;;;;;2.20;92.00;;;;;;6138594;23;19905;-81
2022/04/19 06:07:58;;;;;;;;;;;2.40;91.70;;;;;;6123731;23;19949;-81
2022/04/19 06:10:23;;;;;;;;;;;2.60;91.50;;;;;;6123105;23;19924;-81
2022/04/19 06:12:49;;;;;;;;;;;2.60;91.20;;;;;;6146600;23;19913;-80
2022/04/19 06:15:14;;;;;;;;;;;2.80;90.70;;;;;;6144473;23;19917;-81
2022/04/19 06:17:41;;;;;;;;;;;3.00;90.50;;;;;;6142618;23;19919;-79
2022/04/19 06:20:06;;;;;;;;;;;3.20;90.20;;;;;;6238540;23;19904;-81
2022/04/19 06:22:32;;;;;;;;;;;3.30;89.70;;;;;;6213020;23;19982;-86
2022/04/19 06:24:58;;;;;;;;;;;3.40;89.00;;;;;;6230691;23;20007;-85
2022/04/19 06:27:24;;;;;;;;;;;3.70;88.40;;;;;;6204524;23;20283;-83
2022/04/19 06:29:52;;;;;;;;;;;3.80;88.20;;;;;;6202215;23;19904;-85
2022/04/19 06:32:53;;;;;;;;;;;3.90;87.10;;;;;;6235105;23;19907;-81
2022/04/19 06:35:45;;;;;;;;;;;4.10;86.90;;;;;;6240242;23;19943;-80
2022/04/19 06:38:25;;;;;;;;;;;4.50;86.70;;;;;;6210023;23;19964;-83
2022/04/19 06:41:08;;;;;;;;;;;4.40;84.40;;;;;;6240482;23;19940;-78
2022/04/19 06:43:39;;;;;;;;;;;6.20;85.00;;;;;;6243081;23;19923;-79
2022/04/19 06:46:25;;;;;;;;;;;5.00;83.60;;;;;;6243101;23;19892;-81
2022/04/19 06:49:12;;;;;;;;;;;7.80;86.40;;;;;;6240449;23;19944;-80
2022/04/19 06:52:05;;;;;;;;;;;5.00;82.40;;;;;;6242194;23;20516;-81
2022/04/19 07:06:15;;;;;;;;;;;5.60;80.60;;;;;;6130099;23;19925;-82
2022/04/19 07:34:33;;;;;;;;;;;6.80;69.60;;;;;;6175393;23;19904;-79
2022/04/19 07:37:31;;;;;;;;;;;4.10;65.70;;;;;;6212345;23;19940;-81
2022/04/19 07:39:56;;;;;;;;;;;7.40;66.80;;;;;;6212725;23;19916;-80
2022/04/19 07:42:22;;;;;;;;;;;7.40;67.10;;;;;;6214120;23;19917;-79
2022/04/19 07:44:56;;;;;;;;;;;7.50;65.10;;;;;;6186599;23;19927;-80
2022/04/19 07:47:34;;;;;;;;;;;7.60;64.80;;;;;;6184717;23;19940;-80
2022/04/19 07:50:01;;;;;;;;;;;8.00;64.70;;;;;;6184518;23;19893;-79
2022/04/19 07:52:29;;;;;;;;;;;7.90;64.10;;;;;;6156108;23;19927;-78
2022/04/19 07:55:10;;;;;;;;;;;8.00;64.00;;;;;;6203165;23;20320;-82
2022/04/19 07:57:36;;;;;;;;;;;8.10;61.70;;;;;;6149913;23;19966;-83
2022/04/19 08:00:06;;;;;;;;;;;8.40;62.50;;;;;;6199922;23;19908;-82
2022/04/19 08:02:34;;;;;;;;;;;8.50;61.00;;;;;;6193842;23;19951;-81
2022/04/19 08:05:09;;;;;;;;;;;9.30;60.00;;;;;;6179783;23;19930;-82
2022/04/19 08:07:51;;;;;;;;;;;8.70;59.20;;;;;;6171234;23;19976;-82
2022/04/19 08:10:29;;;;;;;;;;;7.80;57.90;;;;;;6164518;23;19979;-83
2022/04/19 08:12:55;;;;;;;;;;;9.20;58.80;;;;;;6186383;23;19915;-81
2022/04/19 08:15:26;;;;;;;;;;;9.30;59.30;;;;;;6163814;23;19991;-83
2022/04/19 08:17:58;;;;;;;;;;;8.90;57.00;;;;;;6203436;23;19904;-83
2022/04/19 08:23:39;;;;;;;;;;;10.30;53.70;;;;;;6053361;23;20512;-76
2022/04/19 08:26:14;;;;;;;;;;;9.40;53.20;;;;;;6049712;23;19902;-82
2022/04/19 08:28:56;;;;;;;;;;;9.60;52.30;;;;;;6036837;23;19906;-80
2022/04/19 08:31:34;;;;;;;;;;;9.70;51.10;;;;;;6050354;23;19910;-81
2022/04/19 08:34:05;;;;;;;;;;;8.70;50.40;;;;;;6026543;23;19934;-81
2022/04/19 08:36:35;;;;;;;;;;;10.40;45.90;;;;;;6047552;23;19914;-82
2022/04/19 08:39:00;;;;;;;;;;;10.20;42.50;;;;;;6044554;23;19910;-82
2022/04/19 08:41:26;;;;;;;;;;;10.10;42.20;;;;;;6029465;23;19906;-82
2022/04/19 08:43:55;;;;;;;;;;;10.20;43.90;;;;;;6030680;23;20196;-80
2022/04/19 08:46:20;;;;;;;;;;;10.70;41.50;;;;;;6030863;23;19945;-80
2022/04/19 08:48:47;;;;;;;;;;;10.20;44.20;;;;;;6008933;23;20386;-80
2022/04/19 08:51:13;;;;;;;;;;;10.20;42.20;;;;;;6029602;23;20426;-80
2022/04/19 08:59:07;;;;;;;;;;;10.60;44.20;;;;;;6065513;23;20028;-79
2022/04/19 09:01:41;;;;;;;;;;;11.00;43.30;;;;;;6177304;23;19904;-79
2022/04/19 09:04:23;;;;;;;;;;;10.60;44.30;;;;;;6178779;23;20405;-79
2022/04/19 09:09:25;;;;;;;;;;;10.50;44.10;;;;;;6173647;23;19916;-80
2022/04/19 09:11:51;;;;;;;;;;;10.40;43.90;;;;;;6156065;23;19916;-81
2022/04/19 09:14:17;;;;;;;;;;;11.00;45.40;;;;;;6180479;23;19927;-81
2022/04/19 09:16:43;;;;;;;;;;;11.10;43.40;;;;;;6176462;23;19909;-82
2022/04/19 09:19:10;;;;;;;;;;;11.30;42.90;;;;;;6170921;23;19905;-80
2022/04/19 09:21:37;;;;;;;;;;;11.30;42.10;;;;;;6146223;23;19911;-81
2022/04/19 09:24:16;;;;;;;;;;;11.60;41.10;;;;;;6144715;23;19907;-80
2022/04/19 09:26:52;;;;;;;;;;;11.90;39.20;;;;;;6148332;23;20070;-80
2022/04/19 09:29:21;;;;;;;;;;;11.90;39.30;;;;;;6170237;23;20541;-81
2022/04/19 09:31:47;;;;;;;;;;;11.80;40.90;;;;;;6169909;23;19916;-81
2022/04/19 09:34:26;;;;;;;;;;;12.10;42.70;;;;;;6169873;23;19908;-81
2022/04/19 09:36:53;;;;;;;;;;;12.40;38.70;;;;;;6143055;23;19912;-81
2022/04/19 09:39:25;;;;;;;;;;;12.70;41.10;;;;;;6168387;23;19909;-81
2022/04/19 09:41:59;;;;;;;;;;;12.90;38.30;;;;;;6168745;23;19916;-82
2022/04/19 09:44:24;;;;;;;;;;;13.00;39.70;;;;;;6167541;23;19906;-81
2022/04/19 09:47:06;;;;;;;;;;;13.10;39.90;;;;;;6166846;23;19971;-80
2022/04/19 09:49:41;;;;;;;;;;;13.20;39.70;;;;;;6143460;23;19909;-83
2022/04/19 09:52:14;;;;;;;;;;;12.90;37.40;;;;;;6167689;23;19920;-81
2022/04/19 09:54:40;;;;;;;;;;;13.40;38.60;;;;;;6167476;23;19995;-82
2022/04/19 09:57:12;;;;;;;;;;;13.40;38.60;;;;;;6168504;23;19904;-84
2022/04/19 09:59:44;;;;;;;;;;;13.60;36.60;;;;;;6168598;23;19996;-83
2022/04/19 10:10:31;;;;;;;;;;;13.60;37.90;;;;;;6167639;23;19911;-83
2022/04/19 10:12:58;;;;;;;;;;;14.00;37.00;;;;;;6141417;23;20347;-80
2022/04/19 10:15:24;;;;;;;;;;;14.20;34.10;;;;;;6141345;23;19932;-78
2022/04/19 10:17:50;;;;;;;;;;;14.40;33.90;;;;;;6168504;23;19970;-81
2022/04/19 10:20:16;;;;;;;;;;;14.10;32.00;;;;;;6172325;23;19908;-81
2022/04/19 10:22:48;;;;;;;;;;;14.10;33.20;;;;;;6173092;23;19932;-81
2022/04/19 10:25:14;;;;;;;;;;;13.50;34.50;;;;;;6151778;23;20228;-81
2022/04/19 10:27:40;;;;;;;;;;;13.20;35.00;;;;;;6174272;23;19908;-79
2022/04/19 10:30:08;;;;;;;;;;;13.40;34.70;;;;;;6143246;23;19910;-84
2022/04/19 10:32:33;;;;;;;;;;;13.50;34.40;;;;;;6169790;23;19916;-80
2022/04/19 10:35:00;;;;;;;;;;;14.00;34.60;;;;;;6168876;23;19909;-79
2022/04/19 10:37:26;;;;;;;;;;;14.20;34.10;;;;;;6168558;23;19919;-83
2022/04/19 10:40:12;;;;;;;;;;;14.40;32.40;;;;;;6168023;23;20137;-78
2022/04/19 10:42:40;;;;;;;;;;;14.60;32.80;;;;;;6167944;23;19910;-80
2022/04/19 10:45:12;;;;;;;;;;;15.00;32.80;;;;;;6168093;23;19959;-79
2022/04/19 10:47:53;;;;;;;;;;;14.90;31.90;;;;;;6168182;23;19904;-81
2022/04/19 10:50:34;;;;;;;;;;;15.10;32.70;;;;;;6141024;23;19908;-79
2022/04/19 10:53:03;;;;;;;;;;;15.30;33.60;;;;;;6167543;23;20513;-81
2022/04/19 10:55:30;;;;;;;;;;;15.40;32.70;;;;;;6167818;23;19990;-82
2022/04/19 10:58:21;;;;;;;;;;;15.60;33.00;;;;;;6141994;23;19904;-80
2022/04/19 11:00:56;;;;;;;;;;;15.30;32.00;;;;;;6141948;23;20105;-81
2022/04/19 11:03:25;;;;;;;;;;;15.10;32.50;;;;;;6142230;23;19967;-80
2022/04/19 11:05:52;;;;;;;;;;;15.00;33.30;;;;;;6167674;23;19957;-82
2022/04/19 11:08:36;;;;;;;;;;;15.40;34.20;;;;;;6142671;23;20083;-79
2022/04/19 11:11:02;;;;;;;;;;;15.60;33.90;;;;;;6141028;23;19971;-80
2022/04/19 11:13:31;;;;;;;;;;;15.80;32.50;;;;;;6167613;23;19904;-81
2022/04/19 11:16:00;;;;;;;;;;;16.00;32.20;;;;;;6167575;23;19905;-78
2022/04/19 11:18:27;;;;;;;;;;;16.10;31.40;;;;;;6167448;23;20153;-80
2022/04/19 11:20:53;;;;;;;;;;;15.60;31.30;;;;;;6168503;23;19904;-81
2022/04/19 11:23:20;;;;;;;;;;;15.80;31.80;;;;;;6170515;23;19908;-80
2022/04/19 11:25:49;;;;;;;;;;;15.90;33.20;;;;;;6170700;23;19906;-82
2022/04/19 11:28:18;;;;;;;;;;;16.10;31.80;;;;;;6171804;23;19909;-87
2022/04/19 11:48:02;;;;;;;;;;;15.00;31.60;;;;;;6169622;23;20564;-84
2022/04/19 11:53:24;;;;;;;;;;;15.40;31.70;;;;;;6168821;23;20559;-79
2022/04/19 11:55:51;;;;;;;;;;;15.40;31.80;;;;;;6142905;23;20500;-83
2022/04/19 11:58:20;;;;;;;;;;;14.20;31.30;;;;;;6168572;23;20366;-80
2022/04/19 12:00:54;;;;;;;;;;;16.20;32.80;;;;;;6169002;23;20174;-85
2022/04/19 12:03:23;;;;;;;;;;;16.40;31.90;;;;;;6169161;23;19900;-82
2022/04/19 12:05:49;;;;;;;;;;;16.40;31.70;;;;;;6168565;23;20530;-79
2022/04/19 12:08:36;;;;;;;;;;;16.10;31.20;;;;;;6168269;23;19935;-82
2022/04/19 12:11:05;;;;;;;;;;;16.30;31.30;;;;;;6168935;23;19915;-79
2022/04/19 12:13:31;;;;;;;;;;;16.30;30.90;;;;;;6142664;23;20486;-84
2022/04/19 12:16:09;;;;;;;;;;;16.10;31.30;;;;;;6169286;23;19915;-84
2022/04/19 12:18:38;;;;;;;;;;;16.10;31.70;;;;;;6160858;23;19933;-84
2022/04/19 12:21:04;;;;;;;;;;;15.80;31.90;;;;;;6195626;23;19979;-83
2022/04/19 12:23:30;;;;;;;;;;;16.10;34.60;;;;;;6195528;23;20346;-82
2022/04/19 12:26:00;;;;;;;;;;;16.30;32.40;;;;;;6178437;23;19908;-86
2022/04/19 12:28:34;;;;;;;;;;;16.20;31.60;;;;;;6179658;23;19912;-84
2022/04/19 12:31:00;;;;;;;;;;;16.10;31.60;;;;;;6183840;23;19999;-84
2022/04/19 12:33:26;;;;;;;;;;;15.80;32.50;;;;;;6184538;23;19947;-79
2022/04/19 12:35:54;;;;;;;;;;;15.90;32.10;;;;;;6181587;23;19904;-85
2022/04/19 12:38:27;;;;;;;;;;;15.80;31.80;;;;;;6179586;23;19928;-78
2022/04/19 12:40:53;;;;;;;;;;;15.80;32.10;;;;;;6148626;23;19962;-81
2022/04/19 12:43:19;;;;;;;;;;;16.00;33.10;;;;;;6170548;23;19908;-83
2022/04/19 12:45:45;;;;;;;;;;;16.10;32.40;;;;;;6146652;23;19900;-84
2022/04/19 12:48:19;;;;;;;;;;;16.10;32.40;;;;;;6171009;23;20141;-81
2022/04/19 12:50:44;;;;;;;;;;;16.10;33.00;;;;;;6169569;23;20359;-80
2022/04/19 12:53:20;;;;;;;;;;;16.30;34.10;;;;;;6142253;23;19928;-82
2022/04/19 12:55:56;;;;;;;;;;;16.40;33.90;;;;;;6168477;23;19904;-83
2022/04/19 12:58:21;;;;;;;;;;;16.50;33.40;;;;;;6168409;23;19904;-83
2022/04/19 13:00:47;;;;;;;;;;;16.20;31.60;;;;;;6141479;23;19911;-82
2022/04/19 13:03:14;;;;;;;;;;;16.10;32.80;;;;;;6142072;23;19991;-81
2022/04/19 13:13:57;;;;;;;;;;;14.60;33.50;;;;;;6169033;23;19950;-84
2022/04/19 13:16:22;;;;;;;;;;;14.60;33.80;;;;;;6169135;23;19905;-83
2022/04/19 13:18:50;;;;;;;;;;;14.60;34.10;;;;;;6168605;23;19905;-80
2022/04/19 13:21:16;;;;;;;;;;;15.20;34.00;;;;;;6169349;23;19907;-87
2022/04/19 13:23:42;;;;;;;;;;;15.10;34.00;;;;;;6143989;23;19904;-82
2022/04/19 13:26:07;;;;;;;;;;;14.90;33.50;;;;;;6168572;23;19904;-82
2022/04/19 13:28:33;;;;;;;;;;;15.00;35.00;;;;;;6142003;23;19909;-83
2022/04/19 13:30:59;;;;;;;;;;;14.60;34.20;;;;;;6169276;23;19924;-83
2022/04/19 13:33:25;;;;;;;;;;;16.30;35.50;;;;;;6176733;23;19959;-81
2022/04/19 13:35:50;;;;;;;;;;;14.40;34.80;;;;;;6148206;23;19919;-82
2022/04/19 13:38:25;;;;;;;;;;;14.30;35.10;;;;;;6173517;23;19908;-83
2022/04/19 13:41:10;;;;;;;;;;;14.20;35.60;;;;;;6175151;23;19911;-89
2022/04/19 13:43:37;;;;;;;;;;;14.20;35.90;;;;;;6145631;23;19963;-83
2022/04/19 13:46:03;;;;;;;;;;;13.90;38.10;;;;;;6145810;23;20534;-89
2022/04/19 13:48:29;;;;;;;;;;;13.60;36.50;;;;;;6171337;23;19958;-85
2022/04/19 13:50:55;;;;;;;;;;;12.70;36.90;;;;;;6143811;23;19912;-85
2022/04/19 13:53:20;;;;;;;;;;;13.50;36.60;;;;;;6168819;23;20520;-86
2022/04/19 13:55:46;;;;;;;;;;;13.80;37.20;;;;;;6169263;23;20164;-86
2022/04/19 13:58:12;;;;;;;;;;;13.60;37.30;;;;;;6169040;23;19913;-83
2022/04/19 14:00:37;;;;;;;;;;;13.50;36.90;;;;;;6168359;23;19904;-84
2022/04/19 14:03:03;;;;;;;;;;;13.70;38.00;;;;;;6169102;23;19911;-86
2022/04/19 14:05:30;;;;;;;;;;;13.80;37.20;;;;;;6169053;23;20371;-85
2022/04/19 14:07:57;;;;;;;;;;;13.90;37.30;;;;;;6141905;23;19956;-83
2022/04/19 14:10:22;;;;;;;;;;;14.00;37.30;;;;;;6168152;23;19904;-83
2022/04/19 14:12:48;;;;;;;;;;;14.00;37.00;;;;;;6168063;23;20652;-83
2022/04/19 14:15:15;;;;;;;;;;;14.00;37.10;;;;;;6140521;23;22130;-86
2022/04/19 14:17:42;;;;;;;;;;;13.90;37.60;;;;;;6167892;23;19905;-86
2022/04/19 14:20:08;;;;;;;;;;;13.90;38.10;;;;;;6168204;23;19911;-82
2022/04/19 14:22:34;;;;;;;;;;;13.30;38.10;;;;;;6168526;23;20287;-84
2022/04/19 14:24:59;;;;;;;;;;;13.40;38.20;;;;;;6168410;23;20094;-84
2022/04/19 14:27:25;;;;;;;;;;;13.40;38.30;;;;;;6168588;23;20317;-80
2022/04/19 14:35:19;;;;;;;;;;;13.10;39.50;;;;;;6169560;23;19951;-82
2022/04/19 14:37:45;;;;;;;;;;;12.90;40.20;;;;;;6170307;23;19904;-85
2022/04/19 14:40:10;;;;;;;;;;;12.80;41.20;;;;;;6168753;23;19947;-83
2022/04/19 14:42:36;;;;;;;;;;;12.90;41.00;;;;;;6170002;23;19904;-86
2022/04/19 14:45:02;;;;;;;;;;;13.00;41.20;;;;;;6142572;23;19900;-83
2022/04/19 14:47:27;;;;;;;;;;;13.00;41.20;;;;;;6169048;23;19904;-85
2022/04/19 14:49:53;;;;;;;;;;;13.00;41.70;;;;;;6168885;23;20592;-86
2022/04/19 14:52:19;;;;;;;;;;;13.10;42.00;;;;;;6127798;23;19925;-85
2022/04/19 14:54:45;;;;;;;;;;;13.00;42.60;;;;;;6148374;23;19909;-84
2022/04/19 14:57:11;;;;;;;;;;;12.90;42.10;;;;;;6143310;23;19908;-85
2022/04/19 14:59:37;;;;;;;;;;;12.90;42.40;;;;;;6143491;23;19934;-86
2022/04/19 15:02:06;;;;;;;;;;;12.90;43.20;;;;;;6153043;23;20577;-82
2022/04/19 15:04:32;;;;;;;;;;;12.80;43.30;;;;;;6171470;23;20426;-82
2022/04/19 15:06:58;;;;;;;;;;;12.80;43.70;;;;;;6173858;23;19916;-84
2022/04/19 15:09:24;;;;;;;;;;;12.80;44.10;;;;;;6176359;23;19909;-84
2022/04/19 15:11:53;;;;;;;;;;;12.70;44.90;;;;;;6121095;23;20010;-81
2022/04/19 15:14:19;;;;;;;;;;;12.50;43.90;;;;;;6116259;23;19931;-82
2022/04/19 15:16:45;;;;;;;;;;;10.40;43.70;;;;;;6142007;23;20620;-87
2022/04/19 15:27:43;;;;;;;;;;;12.60;43.80;;;;;;6166533;23;19920;-87
2022/04/19 15:30:09;;;;;;;;;;;13.80;44.30;;;;;;6170317;23;19930;-87
2022/04/19 15:32:34;;;;;;;;;;;12.40;43.90;;;;;;6170835;23;19912;-89
2022/04/19 15:35:00;;;;;;;;;;;12.80;45.50;;;;;;6171748;23;19907;-88
2022/04/19 15:37:27;;;;;;;;;;;12.40;44.70;;;;;;6169758;23;19904;-90
2022/04/19 15:39:52;;;;;;;;;;;9.10;42.50;;;;;;6170721;23;19943;-89
2022/04/19 15:42:18;;;;;;;;;;;13.90;45.00;;;;;;6170636;23;19934;-81
2022/04/19 15:44:43;;;;;;;;;;;12.20;44.70;;;;;;6168746;23;19904;-88
2022/04/19 15:47:11;;;;;;;;;;;12.10;44.30;;;;;;6168627;23;19904;-81
2022/04/19 15:49:37;;;;;;;;;;;12.10;44.70;;;;;;6168032;23;19904;-85
2022/04/19 15:52:02;;;;;;;;;;;12.20;44.90;;;;;;6170122;23;19916;-82
2022/04/19 15:54:28;;;;;;;;;;;12.00;44.90;;;;;;6168706;23;19962;-84
2022/04/19 15:56:53;;;;;;;;;;;12.00;44.80;;;;;;6168925;23;20375;-85
2022/04/19 15:59:19;;;;;;;;;;;11.90;44.70;;;;;;6169194;23;19909;-87
2022/04/19 16:01:47;;;;;;;;;;;11.90;45.00;;;;;;6169575;23;19934;-87
2022/04/19 16:04:13;;;;;;;;;;;10.80;45.00;;;;;;6171410;23;19908;-87
2022/04/19 16:06:40;;;;;;;;;;;11.60;45.30;;;;;;6169820;23;19905;-86
2022/04/19 16:09:05;;;;;;;;;;;11.70;46.20;;;;;;6169531;23;19986;-85
2022/04/19 16:11:31;;;;;;;;;;;11.70;45.20;;;;;;6171411;23;20275;-85
2022/04/19 16:13:57;;;;;;;;;;;11.80;45.20;;;;;;6170681;23;20011;-80
2022/04/19 16:24:35;;;;;;;;;;;11.80;44.60;;;;;;6171498;23;20074;-80
2022/04/19 16:27:01;;;;;;;;;;;11.80;44.40;;;;;;6169232;23;19920;-84
2022/04/19 16:29:27;;;;;;;;;;;11.80;44.30;;;;;;6172252;23;19908;-83
2022/04/19 16:31:53;;;;;;;;;;;12.90;45.00;;;;;;6171076;23;19912;-79
2022/04/19 16:34:19;;;;;;;;;;;11.80;44.40;;;;;;6170485;23;19930;-81
2022/04/19 16:36:45;;;;;;;;;;;11.80;44.40;;;;;;6169679;23;19904;-79
2022/04/19 16:39:11;;;;;;;;;;;11.80;45.00;;;;;;6168419;23;19913;-79
2022/04/19 16:41:36;;;;;;;;;;;11.80;45.60;;;;;;6176618;23;20009;-80
2022/04/19 16:44:02;;;;;;;;;;;11.60;45.90;;;;;;6177089;23;20250;-86
2022/04/19 16:46:27;;;;;;;;;;;11.80;45.50;;;;;;6184692;23;20102;-81
2022/04/19 16:48:53;;;;;;;;;;;11.60;45.30;;;;;;6191288;23;20635;-84
2022/04/19 16:51:19;;;;;;;;;;;12.50;46.50;;;;;;6194271;23;19991;-85
2022/04/19 16:53:44;;;;;;;;;;;11.50;46.50;;;;;;6189162;23;19935;-84
2022/04/19 16:56:10;;;;;;;;;;;11.40;46.60;;;;;;6203003;23;19916;-84
2022/04/19 16:58:36;;;;;;;;;;;11.40;46.50;;;;;;6206819;23;19907;-85
2022/04/19 17:01:01;;;;;;;;;;;11.40;46.80;;;;;;6205837;23;19915;-86